Claude, Oregon
Current Conditions -  °F | °C
As of 8:53 AM on Friday 31 Oct 2014 (Local Time) from KONO Reporting Station
Clear Clear  
Wind Chill:   Ceiling: Unl
Heat Index:   Visibility: 10mi
Dew Point:   Wind: 0mph
Humidity: 86%   Direction: NA
Pressure: 29.82"   Gusts: NA
Location:  44.0817°N, 117.014°W
Report Text: KONO 311453Z AUTO 00000KT 10SM CLR 06/04 A2982 RMK AO2 SLP103 T00610039 53005
Loading
Personal Weather Stations






























Interactive Weather Map
Tropical Storm Tracking
New forecast layout! Learn more

10-Day Weather Forecast

Advertisements
Track Severe Weather on mobile